Weather observations for the past three days for
Havasu City Airport
Imperial (Metric)
Date Time (mst) Wind (mph) Vis. (mi.) Weather Sky Cond. Temperature (ºF) Relative Humidity Wind Chill (°F) Heat Index (°F) Pressure Precipitation (in)
Air Dwpt 6 hour altimeter (in) sea level (mb) 1 hr 3 hr 6 hr
Max. Min.
07 13:15 W 8 10.00 Fair CLR 93.2 21.2 7% 89 29.85 0.0
07 12:35 Vrbl 3 10.00 Fair CLR 91.4 23 8% 87 29.87 0.0
07 12:15 Vrbl 6 10.00 Fair CLR 91.4 23 8% 87 29.88 0.0
07 11:55 NW 6 10.00 Fair CLR 89.6 24.8 9% 86 29.89 0.0
07 11:35 NW 7 10.00 Fair CLR 89.6 26.6 10% 86 29.9 0.0
07 11:15 W 9 10.00 Fair CLR 87.8 28.4 12% 84 29.91 0.0
07 10:55 Vrbl 6 10.00 Fair CLR 86 32 14% 83 29.92 0.0
07 10:15 Calm 10.00 Fair CLR 82.4 33.8 17% 80 29.93 0.0
07 09:55 Vrbl 5 10.00 Fair CLR 80.6 35.6 20% 79 29.93 0.0
07 09:35 Calm 10.00 Fair CLR 78.8 35.6 21% 78 29.94 0.0
07 08:55 Calm 10.00 Fair CLR 77 37.4 24% 77 29.94 0.0
07 08:35 Calm 10.00 Fair CLR 75.2 37.4 25% 77 29.95 0.0
07 08:15 S 5 10.00 Fair CLR 73.4 37.4 27% 29.95 0.0
07 07:55 Calm 10.00 Fair CLR 71.6 37.4 29% 29.95 0.0
07 07:35 W 6 10.00 Fair CLR 71.6 37.4 29% 29.95 0.0
07 07:15 Calm 10.00 Fair CLR 71.6 35.6 27% 29.94 0.0
07 06:55 Calm 10.00 Fair CLR 71.6 33.8 25% 29.93 0.0
07 06:35 Calm 10.00 Fair CLR 68 33.8 28% 29.93 0.0
07 06:15 Calm 10.00 Fair CLR 68 33.8 28% 29.92 0.0
07 05:55 Calm 10.00 Fair CLR 66.2 33.8 30% 29.92 0.0
07 05:35 Calm 10.00 Fair CLR 66.2 33.8 30% 29.92 0.0
07 05:15 Calm 10.00 Fair CLR 69.8 33.8 27% 29.91 0.0
07 04:55 Calm 10.00 Fair CLR 69.8 33.8 27% 29.92 0.0
07 04:35 Calm 10.00 Fair CLR 69.8 33.8 27% 29.92 0.0
07 03:55 NE 7 10.00 Fair CLR 71.6 33.8 25% 29.91 0.0
07 03:35 NE 6 10.00 Fair CLR 69.8 33.8 27% 29.92 0.0
07 03:15 NE 3 10.00 Fair CLR 69.8 33.8 27% 29.92 0.0
07 02:55 Calm 10.00 Fair CLR 71.6 33.8 25% 29.92 0.0
07 02:35 Calm 10.00 Fair CLR 73.4 33.8 23% 29.92 0.0
07 02:15 Calm 10.00 Fair CLR 71.6 33.8 25% 29.92 0.0
07 01:55 Calm 10.00 Fair CLR 73.4 33.8 23% 29.92 0.0
07 01:35 Calm 10.00 Fair CLR 75.2 35.6 24% 76 29.92 0.0
07 01:15 N 5 10.00 Fair CLR 75.2 37.4 25% 77 29.92 0.0
07 00:55 N 5 10.00 Fair CLR 75.2 37.4 25% 77 29.92 0.0
07 00:35 NW 6 10.00 Fair CLR 75.2 37.4 25% 77 29.92 0.0
07 00:15 W 3 10.00 Fair CLR 77 33.8 21% 77 29.91 0.0
06 23:55 E 6 10.00 Fair CLR 77 33.8 21% 77 29.91 0.0
06 23:35 E 7 10.00 Fair CLR 77 33.8 21% 77 29.91 0.0
06 23:15 E 6 10.00 Fair CLR 78.8 33.8 20% 78 29.91 0.0
06 22:55 E 7 10.00 Fair CLR 80.6 33.8 18% 79 29.9 0.0
06 22:35 E 9 10.00 Fair CLR 78.8 33.8 20% 78 29.9 0.0
06 22:15 SE 7 10.00 Fair CLR 80.6 33.8 18% 79 29.9 0.0
06 21:35 SE 6 G 12 10.00 Fair CLR 82.4 35.6 19% 80 29.9 0.0
06 21:15 SE 9 10.00 Fair CLR 82.4 35.6 19% 80 29.89 0.0
06 20:55 SE 7 10.00 Fair CLR 82.4 35.6 19% 80 29.88 0.0
06 20:35 S 8 10.00 Fair CLR 82.4 33.8 17% 80 29.88 0.0
06 20:15 SE 6 10.00 Fair CLR 82.4 32 16% 80 29.87 0.0
06 19:55 S 3 10.00 Fair CLR 84.2 32 15% 81 29.86 0.0
06 19:35 S 6 10.00 Fair CLR 86 32 14% 83 29.85 0.0
06 18:55 SW 6 10.00 Fair CLR 87.8 33.8 15% 84 29.85 0.0
06 18:35 S 6 10.00 Fair CLR 87.8 33.8 15% 84 29.85 0.0
06 18:15 SW 6 10.00 Fair CLR 87.8 33.8 15% 84 29.86 0.0
06 17:55 SW 7 10.00 Fair CLR 87.8 33.8 15% 84 29.86 0.0
06 17:35 SW 9 10.00 Fair CLR 87.8 33.8 15% 84 29.86 0.0
06 17:15 SW 8 G 14 10.00 Fair CLR 87.8 33.8 15% 84 29.86 0.0
06 16:55 S 9 10.00 Fair CLR 87.8 33.8 15% 84 29.86 0.0
06 16:35 SW 13 10.00 Fair CLR 87.8 33.8 15% 84 29.86 0.0
06 15:55 Calm 10.00 Fair CLR 86 33.8 15% 83 29.88 0.0
06 15:35 SW 10 10.00 Fair CLR 87.8 33.8 15% 84 29.88 0.0
06 15:15 Vrbl 7 10.00 Fair CLR 86 33.8 15% 83 29.89 0.0
06 14:55 S 9 10.00 Fair CLR 86 33.8 15% 83 29.9 0.0
06 14:35 Vrbl 6 10.00 Fair CLR 84.2 33.8 16% 81 29.92 0.0
06 14:15 S 8 10.00 Fair CLR 84.2 33.8 16% 81 29.93 0.0
06 13:55 NW 3 G 12 10.00 Fair CLR 84.2 33.8 16% 81 29.93 0.0
06 13:35 Calm 10.00 Fair CLR 82.4 33.8 17% 80 29.94 0.0
06 13:15 Vrbl 6 10.00 Fair CLR 82.4 32 16% 80 29.95 0.0
06 12:55 Vrbl 6 10.00 Fair CLR 80.6 33.8 18% 79 29.96 0.0
06 12:35 S 3 10.00 Fair CLR 80.6 33.8 18% 79 29.97 0.0
06 12:15 W 6 G 12 10.00 Fair CLR 80.6 33.8 18% 79 29.97 0.0
06 11:55 Vrbl 6 10.00 Fair CLR 78.8 33.8 20% 78 29.98 0.0
06 11:35 S 8 10.00 Fair CLR 77 35.6 22% 77 29.99 0.0
06 11:15 Vrbl 7 10.00 Fair CLR 77 37.4 24% 77 29.99 0.0
06 10:55 SW 8 10.00 Fair CLR 75.2 37.4 25% 77 30 0.0
06 10:35 Vrbl 7 G 14 10.00 Fair CLR 75.2 37.4 25% 77 30 0.0
06 10:15 S 6 10.00 Fair CLR 75.2 37.4 25% 77 30 0.0
06 09:55 Vrbl 7 10.00 Fair CLR 73.4 37.4 27% 30 0.0
06 09:35 SW 8 10.00 Fair CLR 71.6 39.2 31% 30 0.0
06 09:15 Vrbl 6 10.00 Fair CLR 69.8 39.2 33% 30 0.0
06 08:55 SW 8 9.00 Fair CLR 69.8 41 35% 30 0.0
06 08:35 S 5 10.00 Fair CLR 68 37.4 33% 29.99 0.0
06 08:15 Calm 9.00 Fair CLR 66.2 39.2 37% 29.99 0.0
06 07:55 Calm 10.00 Fair CLR 64.4 39.2 40% 29.99 0.0
06 07:35 Calm 10.00 Fair CLR 64.4 39.2 40% 29.99 0.0
06 07:15 W 3 10.00 Fair CLR 64.4 39.2 40% 29.98 0.0
06 06:55 NW 6 10.00 Fair CLR 62.6 39.2 42% 29.97 0.0
06 06:35 N 5 10.00 Fair CLR 62.6 37.4 39% 29.96 0.0
06 06:15 Calm 10.00 Fair CLR 60.8 37.4 42% 29.95 0.0
06 05:55 N 5 10.00 Fair CLR 60.8 37.4 42% 29.95 0.0
06 05:35 N 5 10.00 Fair CLR 60.8 37.4 42% 29.94 0.0
06 05:15 N 6 10.00 Fair CLR 60.8 35.6 39% 29.93 0.0
06 04:55 N 3 10.00 Fair CLR 62.6 35.6 37% 29.93 0.0
06 04:35 Calm 10.00 Fair CLR 62.6 35.6 37% 29.93 0.0
06 04:15 N 5 10.00 Fair CLR 64.4 35.6 34% 29.93 0.0
06 03:55 N 5 10.00 Fair CLR 62.6 37.4 39% 29.92 0.0
06 03:35 Calm 10.00 Fair CLR 64.4 35.6 34% 29.92 0.0
06 03:15 Calm 10.00 Fair CLR 64.4 35.6 34% 29.92 0.0
06 02:55 Calm 10.00 Fair CLR 64.4 35.6 34% 29.91 0.0
06 02:35 E 3 10.00 Fair CLR 66.2 37.4 35% 29.92 0.0
06 02:15 Calm 10.00 Fair CLR 66.2 37.4 35% 29.91 0.0
06 01:55 S 5 10.00 Fair CLR 66.2 35.6 32% 29.91 0.0
06 01:35 Calm 10.00 Fair CLR 66.2 35.6 32% 29.91 0.0
06 01:15 E 7 10.00 Fair CLR 66.2 35.6 32% 29.9 0.0
06 00:55 Calm 10.00 Fair CLR 66.2 37.4 35% 29.9 0.0
06 00:35 SW 3 10.00 Fair CLR 68 37.4 33% 29.9 0.0
06 00:15 W 5 10.00 Fair CLR 68 37.4 33% 29.9 0.0
05 23:55 E 7 10.00 Fair CLR 68 37.4 33% 29.89 0.0
05 23:35 SE 7 10.00 Fair CLR 68 37.4 33% 29.89 0.0
05 23:15 S 5 10.00 Fair CLR 69.8 37.4 31% 29.88 0.0
05 22:55 Calm 10.00 Fair CLR 69.8 37.4 31% 29.88 0.0
05 22:35 S 6 10.00 Fair CLR 71.6 37.4 29% 29.88 0.0
05 22:15 S 6 10.00 Fair CLR 69.8 37.4 31% 29.88 0.0
05 21:55 SE 6 10.00 Fair CLR 71.6 37.4 29% 29.87 0.0
05 21:35 SE 7 10.00 Fair CLR 71.6 37.4 29% 29.86 0.0
05 21:15 SE 8 10.00 Fair CLR 71.6 37.4 29% 29.85 0.0
05 20:55 SE 12 10.00 Fair CLR 71.6 37.4 29% 29.84 0.0
05 20:35 SE 13 10.00 Fair CLR 73.4 37.4 27% 29.83 0.0
05 20:15 SE 13 10.00 Fair CLR 73.4 37.4 27% 29.83 0.0
05 19:55 S 12 10.00 Fair CLR 75.2 37.4 25% 77 29.81 0.0
05 19:35 SW 6 10.00 A Few Clouds FEW110 75.2 28.4 18% 76 29.81 0.0
05 19:15 SW 6 G 13 10.00 Mostly Cloudy BKN110 77 28.4 17% 77 29.8 0.0
05 18:55 S 10 10.00 Mostly Cloudy BKN100 77 28.4 17% 77 29.79 0.0
05 18:35 W 6 G 13 10.00 Overcast OVC100 77 30.2 18% 77 29.79 0.0
05 18:15 SW 10 G 17 10.00 Overcast OVC100 78.8 30.2 17% 78 29.78 0.0
05 17:55 SW 10 G 16 10.00 Overcast OVC100 78.8 30.2 17% 78 29.78 0.0
05 17:35 SW 10 10.00 Overcast OVC100 78.8 30.2 17% 78 29.78 0.0
05 17:15 S 12 10.00 Overcast OVC100 77 30.2 18% 77 29.77 0.0
05 16:55 SW 6 G 17 10.00 Mostly Cloudy BKN100 77 30.2 18% 77 29.77 0.0
05 16:35 S 10 10.00 Partly Cloudy SCT110 77 30.2 18% 77 29.77 0.0
05 16:15 S 9 G 18 10.00 Partly Cloudy SCT100 78.8 32 18% 78 29.77 0.0
05 15:55 S 8 G 16 10.00 Partly Cloudy SCT100 78.8 32 18% 78 29.77 0.0
05 15:35 SE 7 G 16 10.00 Partly Cloudy SCT095 77 32 19% 77 29.78 0.0
05 15:15 S 7 G 15 10.00 Partly Cloudy SCT095 77 32 19% 77 29.79 0.0
05 14:55 Vrbl 6 G 13 10.00 Partly Cloudy SCT100 77 32 19% 77 29.8 0.0
05 14:35 SW 12 10.00 Mostly Cloudy BKN100 77 33.8 21% 77 29.81 0.0
05 14:15 S 14 10.00 Fair CLR 78.8 33.8 20% 78 29.81 0.0
05 13:55 S 9 G 17 10.00 Fair CLR 77 33.8 21% 77 29.82 0.0
05 13:35 S 9 G 18 10.00 Fair CLR 75.2 33.8 22% 76 29.82 0.0
05 13:15 S 12 G 18 10.00 A Few Clouds FEW100 75.2 35.6 24% 76 29.82 0.0
05 12:35 SW 8 G 15 10.00 Fair CLR 75.2 33.8 22% 76 29.83 0.0
05 12:15 SW 10 10.00 Fair CLR 73.4 35.6 25% 29.84 0.0
05 11:55 Vrbl 7 10.00 Fair CLR 73.4 37.4 27% 29.85 0.0
05 11:35 SE 8 10.00 Fair CLR 73.4 37.4 27% 29.85 0.0
05 11:15 S 7 10.00 Fair CLR 71.6 37.4 29% 29.86 0.0
05 10:55 Vrbl 6 G 13 10.00 Fair CLR 69.8 39.2 33% 29.86 0.0
05 10:35 Calm 10.00 Fair CLR 69.8 39.2 33% 29.86 0.0
05 10:15 W 8 10.00 Fair CLR 69.8 41 35% 29.86 0.0
05 09:55 S 7 10.00 Fair CLR 68 41 38% 29.85 0.0
05 09:35 S 9 10.00 Fair CLR 68 41 38% 29.85 0.0
05 09:15 S 7 10.00 Fair CLR 68 41 38% 29.85 0.0
05 08:35 SW 6 G 12 10.00 Fair CLR 66.2 41 40% 29.85 0.0
05 08:15 SE 7 10.00 Fair CLR 66.2 41 40% 29.84 0.0
05 07:55 SE 8 G 15 10.00 Fair CLR 66.2 41 40% 29.84 0.0
05 07:35 SE 14 10.00 Fair CLR 64.4 42.8 46% 29.84 0.0
05 07:15 SE 9 G 18 10.00 Fair CLR 64.4 42.8 46% 29.84 0.0
05 06:55 SE 12 10.00 Fair CLR 62.6 42.8 49% 29.83 0.0
05 06:35 SE 13 10.00 Fair CLR 62.6 41 45% 29.83 0.0
05 06:15 SE 12 10.00 Fair CLR 62.6 41 45% 29.82 0.0
05 05:55 SE 8 10.00 Fair CLR 62.6 41 45% 29.82 0.0
05 05:35 SE 12 10.00 Fair CLR 62.6 41 45% 29.81 0.0
05 05:15 SE 9 10.00 Fair CLR 62.6 41 45% 29.81 0.0
05 04:55 SE 10 G 16 10.00 Fair CLR 62.6 39.2 42% 29.81 0.0
05 04:35 SE 8 10.00 Fair CLR 62.6 39.2 42% 29.81 0.0
05 04:15 SE 5 G 14 10.00 Fair CLR 62.6 39.2 42% 29.81 0.0
05 03:55 SE 9 10.00 Fair CLR 62.6 39.2 42% 29.81 0.0
05 03:35 SE 10 10.00 Fair CLR 64.4 41 43% 29.81 0.0
05 03:15 SE 13 10.00 Fair CLR 64.4 41 43% 29.81 0.0
05 02:55 SE 9 G 17 10.00 Fair CLR 64.4 41 43% 29.81 0.0
05 02:35 SE 14 G 20 10.00 Fair CLR 64.4 39.2 40% 29.81 0.0
05 02:15 SE 10 10.00 Fair CLR 66.2 39.2 37% 29.81 0.0
05 01:55 S 13 10.00 Fair CLR 66.2 39.2 37% 29.81 0.0
05 01:35 S 12 10.00 Fair CLR 66.2 39.2 37% 29.82 0.0
05 01:15 S 12 10.00 Fair CLR 68 39.2 35% 29.82 0.0
05 00:55 SE 13 10.00 Fair CLR 68 37.4 33% 29.82 0.0
05 00:35 SE 13 G 18 10.00 Fair CLR 69.8 37.4 31% 29.81 0.0
05 00:15 SE 14 10.00 Fair CLR 69.8 37.4 31% 29.81 0.0
04 23:55 SE 14 10.00 Fair CLR 69.8 37.4 31% 29.81 0.0
04 23:35 SE 14 10.00 Fair CLR 71.6 37.4 29% 29.81 0.0
04 23:15 SE 16 10.00 Fair CLR 71.6 37.4 29% 29.81 0.0
04 22:55 SE 13 10.00 Fair CLR 71.6 37.4 29% 29.81 0.0
04 22:35 SE 9 10.00 Fair CLR 71.6 37.4 29% 29.81 0.0
04 22:15 S 10 10.00 Fair CLR 71.6 37.4 29% 29.82 0.0
04 21:55 SE 12 10.00 Fair CLR 73.4 37.4 27% 29.82 0.0
04 21:35 SE 13 10.00 Fair CLR 73.4 35.6 25% 29.82 0.0
04 21:15 S 13 G 18 10.00 Fair CLR 73.4 35.6 25% 29.81 0.0
04 20:55 SE 12 G 18 10.00 Fair CLR 73.4 35.6 25% 29.8 0.0
04 20:35 SE 13 10.00 Fair CLR 73.4 35.6 25% 29.8 0.0
04 20:15 S 18 10.00 Fair CLR 73.4 35.6 25% 29.78 0.0
04 19:55 S 16 G 23 10.00 Fair CLR 73.4 33.8 23% 29.78 0.0
04 19:35 S 18 10.00 Fair CLR 75.2 33.8 22% 76 29.78 0.0
04 19:15 S 14 G 25 10.00 Fair CLR 75.2 32 21% 76 29.77 0.0
04 18:55 S 20 10.00 Fair CLR 77 30.2 18% 77 29.77 0.0
04 18:35 S 18 10.00 Fair CLR 77 30.2 18% 77 29.77 0.0
04 18:15 S 17 10.00 Fair CLR 77 30.2 18% 77 29.77 0.0
04 17:55 S 16 10.00 Fair CLR 78.8 32 18% 78 29.77 0.0
04 17:35 S 16 G 22 10.00 Fair CLR 78.8 32 18% 78 29.77 0.0
04 17:15 S 16 10.00 Fair CLR 78.8 33.8 20% 78 29.78 0.0
04 16:55 S 8 G 18 10.00 Fair CLR 78.8 35.6 21% 78 29.78 0.0
04 16:35 S 7 G 16 10.00 Fair CLR 78.8 33.8 20% 78 29.78 0.0
04 16:15 Vrbl 7 G 13 10.00 Fair CLR 78.8 35.6 21% 78 29.78 0.0
04 15:55 S 9 G 17 10.00 Fair CLR 78.8 35.6 21% 78 29.79 0.0
04 15:35 SE 13 10.00 Fair CLR 78.8 35.6 21% 78 29.79 0.0
04 15:15 SW 7 G 21 10.00 Fair CLR 78.8 35.6 21% 78 29.8 0.0
04 14:55 S 13 10.00 Fair CLR 78.8 35.6 21% 78 29.81 0.0
04 14:35 SW 13 G 24 10.00 Fair CLR 78.8 37.4 23% 78 29.82 0.0
04 14:15 SW 8 G 17 10.00 Fair CLR 77 37.4 24% 77 29.83 0.0
04 13:55 SW 14 10.00 Fair CLR 77 37.4 24% 77 29.83 0.0
Date Time (mst) Wind (mph) Vis. (mi.) Weather Sky Cond. Air Dwpt Max. Min. Relative Humidity Wind Chill (°F) Heat Index (°F) altimeter (in) sea level (mb) 1 hr 3 hr 6 hr
6 hour
Temperature (ºF) Pressure Precipitation (in)